Atmospheric History
02/08/2018 18:33  to  2/9/2018 18:33
Change End Date:
To complete the export process:
1) Select all of the data below
2) Copy the data to the clipboard
3) Open a word processor such as Notepad
4) Paste the data into the word processor
5) Save the file

Date/Time (MST), AirTemp, RH, Dewpoint ,AvgWindSpeed, GustWindSpeed, WindDirection, PrecipType, PrecipIntensity, PrecipAccumulation, PrecipRate
02/09/2018 18:31, -10, 94, -10 ,4, 4, SW, None, None, ,  
02/09/2018 18:24, -9, 94, -10 ,4, 4, SW, None, None, ,  
02/09/2018 18:16, -8, 94, -9 ,2, 3, SW, None, None, ,  
02/09/2018 18:14, -8, 94, -9 ,2, 2, SW, None, None, ,  
02/09/2018 18:04, -8, 94, -9 ,2, 2, S, None, None, ,  
02/09/2018 18:00, -8, 94, -9 ,0, 2, SW, None, None, ,  
02/09/2018 17:54, -7, 94, -8 ,2, 4, S, None, None, ,  
02/09/2018 17:46, -6, 94, -7 ,2, 4, S, None, None, ,  
02/09/2018 17:44, -6, 94, -7 ,3, 4, S, None, None, ,  
02/09/2018 17:34, -6, 94, -7 ,4, 5, S, None, None, ,  
02/09/2018 17:31, -6, 94, -7 ,4, 4, S, None, None, ,  
02/09/2018 17:24, -6, 94, -7 ,3, 4, S, None, None, ,  
02/09/2018 17:16, -6, 93, -7 ,3, 4, SW, None, None, ,  
02/09/2018 17:14, -5, 93, -7 ,3, 4, SW, None, None, ,  
02/09/2018 17:04, -5, 93, -6 ,3, 4, SW, None, None, ,  
02/09/2018 17:01, -5, 93, -6 ,4, 4, SW, None, None, ,  
02/09/2018 16:54, -4, 93, -6 ,3, 4, SW, None, None, ,  
02/09/2018 16:46, -4, 93, -5 ,1, 4, SW, None, None, ,  
02/09/2018 16:44, -4, 93, -6 ,1, 4, SW, None, None, ,  
02/09/2018 16:34, -5, 93, -6 ,6, 6, SW, None, None, ,  
02/09/2018 16:30, -5, 93, -6 ,5, 6, SW, None, None, ,  
02/09/2018 16:24, -4, 92, -5 ,4, 5, SW, None, None, ,  
02/09/2018 16:16, -3, 91, -5 ,4, 4, SW, None, None, ,  
02/09/2018 16:13, -3, 91, -5 ,3, 4, SW, None, None, ,  
02/09/2018 16:03, -3, 91, -5 ,2, 4, SW, None, None, ,  
02/09/2018 16:01, -3, 91, -5 ,3, 4, SW, None, None, ,  
02/09/2018 15:53, -3, 91, -5 ,2, 5, SW, None, None, ,  
02/09/2018 15:46, -4, 90, -6 ,4, 6, SW, None, None, ,  
02/09/2018 15:43, -4, 90, -6 ,5, 6, SW, None, None, ,  
02/09/2018 15:33, -3, 90, -5 ,5, 6, SW, None, None, ,  
02/09/2018 15:30, -3, 90, -5 ,4, 6, SW, None, None, ,  
02/09/2018 15:23, -3, 90, -5 ,4, 6, SW, None, None, ,  
02/09/2018 15:15, -3, 90, -5 ,5, 7, SW, None, None, ,  
02/09/2018 15:13, -3, 90, -5 ,5, 7, SW, None, None, ,  
02/09/2018 15:03, -2, 88, -4 ,5, 7, W, None, None, ,  
02/09/2018 15:01, -1, 88, -4 ,4, 6, S, None, None, ,  
02/09/2018 14:53, 1, 86, -2 ,3, 3, SW, None, None, ,  
02/09/2018 14:46, 3, 85, 0 ,2, 2, W, None, None, ,  
02/09/2018 14:43, 3, 85, 0 ,1, 2, W, None, None, ,  
02/09/2018 14:33, 3, 85, -1 ,2, 3, W, None, None, ,  
02/09/2018 14:30, 4, 85, 0 ,2, 3, W, None, None, ,  
02/09/2018 14:23, 5, 86, 2 ,1, 2, W, None, None, ,  
02/09/2018 14:15, 3, 85, -1 ,1, 2, W, None, None, ,  
02/09/2018 14:13, 3, 85, 0 ,2, 2, W, None, None, ,  
02/09/2018 14:03, 7, 87, 4 ,0, 1, NW, None, None, ,  
02/09/2018 14:00, 7, 88, 4 ,0, 1, NW, None, None, ,  
02/09/2018 13:52, 5, 89, 3 ,0, 2, NW, None, None, ,  
02/09/2018 13:45, 4, 90, 2 ,1, 4, NW, None, None, ,  
02/09/2018 13:42, 4, 90, 2 ,0, 4, N, None, None, ,  
02/09/2018 13:32, 2, 91, 0 ,2, 2, N, None, None, ,  
02/09/2018 13:30, 2, 91, 0 ,2, 2, N, None, None, ,  
02/09/2018 13:22, 4, 91, 2 ,2, 3, N, None, None, ,  
02/09/2018 13:16, 2, 92, 0 ,2, 3, N, None, None, ,  
02/09/2018 13:12, 1, 91, -1 ,2, 3, N, None, None, ,  
02/09/2018 13:02, 5, 93, 3 ,2, 3, N, None, None, ,  
02/09/2018 13:00, 5, 93, 3 ,2, 4, N, None, None, ,  
02/09/2018 12:52, 2, 93, 1 ,3, 4, N, None, None, ,  
02/09/2018 12:46, 0, 93, -2 ,3, 5, N, None, None, ,  
02/09/2018 12:42, -1, 93, -3 ,4, 5, N, None, None, ,  
02/09/2018 12:32, -4, 93, -5 ,4, 6, N, None, None, ,  
02/09/2018 12:31, -5, 93, -6 ,4, 6, N, None, None, ,  
02/09/2018 12:22, -2, 93, -3 ,5, 6, N, None, None, ,  
02/09/2018 12:16, 0, 94, -2 ,4, 6, N, None, None, ,  
02/09/2018 12:12, -1, 94, -2 ,4, 6, N, None, None, ,  
02/09/2018 12:02, -4, 94, -5 ,6, 7, NE, None, None, ,  
02/09/2018 12:00, -3, 94, -4 ,4, 7, NE, None, None, ,  
02/09/2018 11:52, 4, 95, 3 ,4, 5, N, None, None, ,  
02/09/2018 11:45, 4, 95, 3 ,1, 2, N, None, None, ,  
02/09/2018 11:42, 4, 95, 3 ,0, 0, N, None, None, ,  
02/09/2018 11:32, 6, 96, 6 ,0, 0, SW, None, None, ,  
02/09/2018 11:31, 6, 96, 5 ,0, 0, SW, None, None, ,  
02/09/2018 11:22, 4, 95, 3 ,0, 2, SW, None, None, ,  
02/09/2018 11:16, 4, 95, 4 ,0, 2, W, None, None, ,  
02/09/2018 11:12, 4, 95, 3 ,0, 3, W, None, None, ,  
02/09/2018 11:02, 3, 95, 2 ,2, 3, N, None, None, ,  
02/09/2018 11:00, 3, 95, 2 ,2, 3, N, None, None, ,  
02/09/2018 10:52, 1, 95, 0 ,3, 3, N, None, None, ,  
02/09/2018 10:45, -1, 94, -2 ,1, 2, N, None, None, ,  
02/09/2018 10:42, -2, 94, -3 ,1, 2, N, None, None, ,  
02/09/2018 10:31, -2, 95, -3 ,0, 1, NE, None, None, ,  
02/09/2018 10:31, -2, 95, -3 ,0, 1, NE, None, None, ,  
02/09/2018 10:21, -2, 95, -3 ,1, 2, N, None, None, ,  
02/09/2018 10:16, 1, 96, 1 ,1, 2, N, None, None, ,  
02/09/2018 10:11, 7, 97, 6 ,0, 0, NW, None, None, ,  
02/09/2018 10:01, 7, 97, 6 ,0, 0, NW, None, None, ,  
02/09/2018 10:01, 7, 97, 6 ,0, 0, NW, None, None, ,  
02/09/2018 09:51, 4, 96, 3 ,0, 1, NW, None, None, ,  
02/09/2018 09:45, 3, 96, 2 ,0, 1, NW, None, None, ,  
02/09/2018 09:41, 2, 96, 1 ,0, 2, NW, None, None, ,  
02/09/2018 09:31, 2, 96, 1 ,0, 2, NW, None, None, ,  
02/09/2018 09:30, 2, 96, 1 ,0, 2, NW, None, None, ,  
02/09/2018 09:21, 2, 95, 1 ,1, 2, N, None, None, ,  
02/09/2018 09:16, 1, 95, 0 ,2, 2, NW, None, None, ,  
02/09/2018 09:11, 0, 95, -1 ,2, 2, NW, None, None, ,  
02/09/2018 09:01, 0, 95, -1 ,1, 2, NW, None, None, ,  
02/09/2018 09:01, 0, 95, -1 ,1, 2, NW, None, None, ,  
02/09/2018 08:51, -1, 95, -2 ,0, 0, NW, None, None, ,  
02/09/2018 08:46, 0, 95, -1 ,0, 0, N, None, None, ,  
02/09/2018 08:41, 0, 95, -1 ,0, 0, W, None, None, ,  
02/09/2018 08:31, -3, 95, -4 ,0, 0, W, None, None, ,  
02/09/2018 08:30, -3, 95, -4 ,0, 0, W, None, None, ,  
02/09/2018 08:21, -5, 94, -6 ,0, 0, W, None, None, ,  
02/09/2018 08:16, -5, 94, -6 ,0, 0, W, None, None, ,  
02/09/2018 08:11, -5, 95, -6 ,0, 0, W, None, None, ,  
02/09/2018 08:01, -6, 95, -7 ,0, 0, W, None, None, ,  
02/09/2018 08:00, -6, 94, -7 ,0, 0, W, None, None, ,  
02/09/2018 07:51, -5, 94, -6 ,0, 1, W, None, None, ,  
02/09/2018 07:45, -5, 94, -6 ,0, 2, W, None, None, ,  
02/09/2018 07:40, -5, 94, -7 ,0, 2, W, None, None, ,  
02/09/2018 07:30, -6, 94, -7 ,0, 2, W, None, None, ,  
02/09/2018 07:30, -6, 94, -7 ,0, 2, W, None, None, ,  
02/09/2018 07:20, -6, 94, -7 ,0, 2, NW, None, None, ,  
02/09/2018 07:16, -6, 94, -7 ,1, 2, NW, None, None, ,  
02/09/2018 07:10, -6, 94, -7 ,2, 3, NW, Yes, , ,  
02/09/2018 07:01, -6, 94, -7 ,2, 2, NW, None, None, ,  
02/09/2018 07:00, -6, 94, -7 ,2, 2, NW, None, None, ,  
02/09/2018 06:50, -6, 94, -7 ,2, 3, NW, None, None, ,  
02/09/2018 06:45, -6, 94, -7 ,2, 3, N, None, None, ,  
02/09/2018 06:40, -6, 95, -7 ,2, 4, NW, None, None, ,  
02/09/2018 06:31, -5, 95, -7 ,3, 4, N, None, None, ,  
02/09/2018 06:30, -5, 95, -7 ,3, 4, N, None, None, ,  
02/09/2018 06:20, -5, 95, -6 ,1, 2, N, None, None, ,  
02/09/2018 06:15, -5, 95, -6 ,0, 2, N, None, None, ,  
02/09/2018 06:10, -5, 95, -6 ,0, 4, NW, None, None, ,  
02/09/2018 06:01, -5, 95, -6 ,3, 4, N, None, None, ,  
02/09/2018 06:00, -5, 95, -6 ,4, 4, N, None, None, ,  
02/09/2018 05:50, -5, 95, -7 ,4, 4, NW, None, None, ,  
02/09/2018 05:46, -6, 95, -7 ,4, 4, NW, Yes, , ,  
02/09/2018 05:40, -6, 95, -7 ,4, 4, NW, None, None, ,  
02/09/2018 05:31, -6, 95, -7 ,4, 6, NW, None, None, ,  
02/09/2018 05:30, -6, 95, -7 ,4, 6, NW, None, None, ,  
02/09/2018 05:20, -6, 95, -7 ,6, 7, NW, None, None, ,  
02/09/2018 05:15, -6, 94, -7 ,6, 6, N, None, None, ,  
02/09/2018 05:10, -6, 95, -7 ,4, 5, N, None, None, ,  
02/09/2018 05:00, -6, 95, -7 ,4, 5, N, None, None, ,  
02/09/2018 04:59, -6, 95, -7 ,4, 5, N, None, None, ,  
02/09/2018 04:49, -6, 95, -7 ,5, 6, N, None, None, ,  
02/09/2018 04:46, -6, 95, -7 ,6, 6, N, None, None, ,  
02/09/2018 04:39, -6, 95, -7 ,6, 7, N, None, None, ,  
02/09/2018 04:31, -6, 95, -7 ,6, 7, N, None, None, ,  
02/09/2018 04:29, -6, 95, -7 ,6, 7, N, None, None, ,  
02/09/2018 04:19, -6, 95, -7 ,7, 7, N, None, None, ,  
02/09/2018 04:15, -6, 95, -7 ,6, 7, N, None, None, ,  
02/09/2018 04:09, -6, 95, -7 ,4, 5, N, Yes, , ,  
02/09/2018 04:00, -5, 95, -6 ,4, 5, N, None, None, ,  
02/09/2018 03:59, -5, 95, -6 ,5, 5, N, Yes, , ,  
02/09/2018 03:49, -4, 95, -5 ,5, 6, N, Yes, , ,  
02/09/2018 03:46, -4, 95, -5 ,5, 6, N, Yes, , ,  
02/09/2018 03:39, -4, 95, -5 ,4, 4, N, Yes, , ,  
02/09/2018 03:31, -4, 95, -5 ,3, 3, N, Yes, , ,  
02/09/2018 03:29, -4, 95, -5 ,3, 3, N, Yes, , ,  
02/09/2018 03:19, -4, 95, -5 ,2, 3, N, Yes, , ,  
02/09/2018 03:15, -4, 95, -5 ,1, 2, NW, Yes, , ,  
02/09/2018 03:09, -4, 95, -5 ,2, 2, NW, Yes, , ,  
02/09/2018 03:01, -4, 95, -5 ,2, 2, N, Yes, , ,  
02/09/2018 02:59, -4, 95, -5 ,2, 3, N, None, None, ,  
02/09/2018 02:49, -3, 95, -5 ,2, 3, NE, None, None, ,  
02/09/2018 02:45, -3, 95, -5 ,3, 4, N, Yes, , ,  
02/09/2018 02:39, -3, 95, -5 ,3, 4, N, Yes, , ,  
02/09/2018 02:31, -4, 95, -5 ,4, 4, N, Yes, , ,  
02/09/2018 02:29, -4, 95, -5 ,3, 3, N, Yes, , ,  
02/09/2018 02:19, -4, 95, -5 ,2, 3, N, Yes, , ,  
02/09/2018 02:15, -4, 95, -5 ,2, 4, N, Yes, , ,  
02/09/2018 02:09, -4, 95, -5 ,3, 4, N, None, None, ,  
02/09/2018 02:01, -4, 95, -5 ,4, 5, N, None, None, ,  
02/09/2018 01:58, -4, 95, -5 ,4, 5, N, None, None, ,  
02/09/2018 01:48, -4, 95, -5 ,4, 5, N, None, None, ,  
02/09/2018 01:45, -4, 95, -5 ,4, 5, N, None, None, ,  
02/09/2018 01:38, -5, 95, -5 ,4, 5, N, None, None, ,  
02/09/2018 01:30, -5, 95, -5 ,4, 6, N, None, None, ,  
02/09/2018 01:28, -5, 95, -5 ,5, 6, N, None, None, ,  
02/09/2018 01:18, -5, 95, -5 ,5, 7, N, None, None, ,  
02/09/2018 01:16, -5, 95, -6 ,6, 7, N, None, None, ,  
02/09/2018 01:08, -5, 95, -6 ,7, 7, N, None, None, ,  
02/09/2018 01:01, -4, 95, -5 ,6, 7, N, None, None, ,  
02/09/2018 00:58, -4, 95, -5 ,6, 7, N, None, None, ,  
02/09/2018 00:48, -4, 95, -5 ,7, 7, N, None, None, ,  
02/09/2018 00:45, -4, 95, -5 ,7, 7, N, None, None, ,  
02/09/2018 00:38, -5, 95, -6 ,6, 7, N, None, None, ,  
02/09/2018 00:30, -5, 95, -6 ,6, 7, N, None, None, ,  
02/09/2018 00:28, -5, 95, -6 ,6, 7, N, None, None, ,  
02/09/2018 00:18, -5, 95, -7 ,7, 7, N, None, None, ,  
02/09/2018 00:16, -5, 95, -6 ,7, 7, N, None, None, ,  
02/09/2018 00:08, -5, 95, -6 ,6, 7, N, None, None, ,  
02/09/2018 00:01, -5, 95, -6 ,6, 7, N, None, None, ,  
02/08/2018 23:58, -5, 95, -7 ,6, 7, N, None, None, ,  
02/08/2018 23:48, -6, 95, -7 ,6, 9, N, None, None, ,  
02/08/2018 23:45, -6, 95, -7 ,7, 9, N, None, None, ,  
02/08/2018 23:38, -6, 95, -7 ,9, 9, N, None, None, ,  
02/08/2018 23:31, -6, 95, -7 ,9, 9, N, None, None, ,  
02/08/2018 23:28, -5, 95, -7 ,9, 11, N, None, None, ,  
02/08/2018 23:18, -5, 95, -6 ,10, 11, N, None, None, ,  
02/08/2018 23:15, -5, 95, -6 ,10, 10, N, None, None, ,  
02/08/2018 23:07, -5, 95, -6 ,7, 9, N, None, None, ,  
02/08/2018 23:01, -5, 95, -6 ,9, 9, N, None, None, ,  
02/08/2018 22:57, -5, 95, -6 ,8, 9, N, None, None, ,  
02/08/2018 22:47, -4, 95, -5 ,8, 9, N, None, None, ,  
02/08/2018 22:46, -4, 95, -5 ,8, 9, N, None, None, ,  
02/08/2018 22:37, -4, 95, -5 ,7, 9, N, None, None, ,  
02/08/2018 22:31, -3, 96, -4 ,8, 11, N, None, None, ,  
02/08/2018 22:27, -3, 96, -3 ,8, 11, N, None, None, ,  
02/08/2018 22:17, -2, 96, -3 ,10, 11, N, None, None, ,  
02/08/2018 22:15, -3, 96, -3 ,10, 11, N, None, None, ,  
02/08/2018 22:07, -3, 96, -3 ,9, 13, N, None, None, ,  
02/08/2018 22:01, -3, 96, -4 ,12, 14, N, None, None, ,  
02/08/2018 21:57, -3, 96, -4 ,12, 14, N, None, None, ,  
02/08/2018 21:47, -3, 96, -3 ,14, 14, N, None, None, ,  
02/08/2018 21:46, -3, 96, -3 ,13, 14, N, None, None, ,  
02/08/2018 21:37, -2, 96, -3 ,13, 14, N, None, None, ,  
02/08/2018 21:31, -2, 96, -3 ,13, 14, N, None, None, ,  
02/08/2018 21:27, -3, 96, -3 ,12, 13, N, None, None, ,  
02/08/2018 21:17, -2, 96, -3 ,12, 12, N, None, None, ,  
02/08/2018 21:15, -2, 96, -3 ,12, 12, N, None, None, ,  
02/08/2018 21:07, -2, 96, -3 ,11, 14, N, None, None, ,  
02/08/2018 21:00, -2, 96, -3 ,12, 16, N, None, None, ,  
02/08/2018 20:57, -2, 96, -3 ,14, 16, N, None, None, ,  
02/08/2018 20:47, -1, 96, -2 ,13, 14, N, None, None, ,  
02/08/2018 20:46, -1, 96, -2 ,13, 14, N, None, None, ,  
02/08/2018 20:36, -1, 96, -2 ,12, 12, N, None, None, ,  
02/08/2018 20:31, -1, 96, -1 ,12, 12, N, None, None, ,  
02/08/2018 20:26, -1, 96, -1 ,10, 12, N, Yes, , ,  
02/08/2018 20:16, -1, 96, -1 ,10, 13, N, Yes, , ,  
02/08/2018 20:15, -1, 96, -1 ,10, 14, N, Yes, , ,  
02/08/2018 20:06, -1, 96, -1 ,14, 17, N, Yes, , ,  
02/08/2018 20:00, -1, 96, -2 ,16, 17, N, None, None, ,  
02/08/2018 19:56, -1, 96, -2 ,17, 17, N, None, None, ,  
02/08/2018 19:46, -1, 96, -1 ,14, 15, N, None, None, ,  
02/08/2018 19:46, -1, 96, -1 ,14, 14, N, None, None, ,  
02/08/2018 19:36, 0, 96, -1 ,12, 12, N, None, None, ,  
02/08/2018 19:30, 0, 96, -1 ,11, 11, N, None, None, ,  
02/08/2018 19:26, 0, 96, -1 ,11, 12, N, None, None, ,  
02/08/2018 19:16, 0, 96, 0 ,11, 12, N, None, None, ,  
02/08/2018 19:15, 1, 96, 0 ,11, 12, N, None, None, ,  
02/08/2018 19:06, 1, 96, 0 ,11, 12, N, None, None, ,  
02/08/2018 19:00, 1, 96, 1 ,11, 12, N, None, None, ,  
02/08/2018 18:56, 1, 96, 1 ,9, 11, NW, Yes, , ,  
02/08/2018 18:46, 1, 96, 1 ,10, 12, N, None, None, ,  
02/08/2018 18:45, 1, 96, 1 ,10, 12, N, Yes, , ,  
02/08/2018 18:36, 1, 96, 1 ,11, 12, N, Yes, , ,  
Change End Date:

Copyright © 1998-2015 Vaisala, Inc.
All Rights Reserved
Send comments about the data to:
SCAN Web ® is a registered trademark of Vaisala, Inc.
SCAN Web Version 6.0